createdAt,value
2023-12-29T00:01:31.878Z,1.10
2023-12-29T00:03:59.099Z,1.60
2023-12-29T00:06:25.869Z,1.30
2023-12-29T00:08:52.654Z,1.00
2023-12-29T00:11:21.104Z,1.00
2023-12-29T00:13:48.686Z,1.10
2023-12-29T00:16:19.093Z,1.00
2023-12-29T00:18:46.126Z,1.27
2023-12-29T00:21:13.040Z,1.00
2023-12-29T00:23:39.820Z,1.30
2023-12-29T00:26:06.598Z,0.97
2023-12-29T00:28:33.391Z,1.10
2023-12-29T00:31:02.475Z,1.20
2023-12-29T00:33:31.395Z,1.30
2023-12-29T00:35:58.584Z,1.13
2023-12-29T00:38:28.864Z,1.00
2023-12-29T00:40:55.577Z,1.57
2023-12-29T00:43:23.916Z,1.07
2023-12-29T00:45:50.821Z,1.43
2023-12-29T00:48:17.836Z,1.40
2023-12-29T00:50:44.704Z,1.20
2023-12-29T00:53:12.047Z,1.37
2023-12-29T00:55:38.741Z,1.60
2023-12-29T00:58:05.757Z,1.40
2023-12-29T01:00:33.744Z,1.10
2023-12-29T01:03:00.652Z,1.53
2023-12-29T01:05:29.071Z,1.50
2023-12-29T01:07:56.050Z,1.60
2023-12-29T01:10:22.893Z,1.40
2023-12-29T01:12:49.776Z,1.77
2023-12-29T01:15:16.637Z,1.60
2023-12-29T01:17:43.372Z,1.60
2023-12-29T01:20:10.740Z,1.63
2023-12-29T01:22:37.479Z,1.57
2023-12-29T01:25:04.647Z,1.60
2023-12-29T01:27:31.615Z,1.60
2023-12-29T01:29:58.585Z,1.30
2023-12-29T01:32:25.344Z,1.50
2023-12-29T01:34:54.424Z,1.57
2023-12-29T01:37:21.366Z,1.47
2023-12-29T01:39:48.205Z,1.57
2023-12-29T01:42:14.965Z,1.70
2023-12-29T01:44:41.768Z,1.40
2023-12-29T01:47:18.012Z,1.40
2023-12-29T01:49:49.465Z,1.50
2023-12-29T01:52:18.453Z,1.50
2023-12-29T01:54:48.460Z,1.80
2023-12-29T01:57:15.786Z,1.20
2023-12-29T01:59:43.408Z,1.53
2023-12-29T02:02:10.709Z,1.17
2023-12-29T02:04:38.460Z,1.60
2023-12-29T02:07:05.510Z,1.40
2023-12-29T02:09:34.811Z,1.13
2023-12-29T02:12:01.647Z,1.63
2023-12-29T02:14:28.569Z,1.40
2023-12-29T02:17:06.824Z,1.87
2023-12-29T02:19:46.382Z,1.33
2023-12-29T02:22:14.328Z,1.20
2023-12-29T02:24:48.792Z,1.43
2023-12-29T02:27:56.151Z,1.50
2023-12-29T02:30:49.737Z,1.60
2023-12-29T02:33:21.906Z,1.60
2023-12-29T02:35:52.577Z,1.57
2023-12-29T02:38:19.593Z,1.50
2023-12-29T02:40:47.534Z,1.60
2023-12-29T02:43:14.380Z,1.53
2023-12-29T02:45:41.247Z,1.27
2023-12-29T02:48:08.360Z,1.50
2023-12-29T02:50:35.103Z,1.70
2023-12-29T02:53:01.831Z,1.60
2023-12-29T02:55:28.731Z,1.40
2023-12-29T02:57:55.556Z,1.50
2023-12-29T03:00:22.420Z,1.60
2023-12-29T03:02:49.217Z,1.70
2023-12-29T03:05:16.209Z,1.50
2023-12-29T03:07:42.930Z,1.87
2023-12-29T03:10:10.221Z,1.57
2023-12-29T03:12:37.142Z,1.30
2023-12-29T03:15:04.439Z,1.67
2023-12-29T03:17:31.167Z,1.67
2023-12-29T03:19:59.868Z,1.87
2023-12-29T03:22:26.686Z,1.50
2023-12-29T03:24:53.503Z,1.70
2023-12-29T03:27:20.328Z,1.50
2023-12-29T03:29:47.093Z,1.57
2023-12-29T03:32:13.934Z,1.80
2023-12-29T03:34:40.765Z,1.73
2023-12-29T03:37:07.626Z,1.40
2023-12-29T03:39:36.830Z,1.50
2023-12-29T03:42:04.312Z,1.47
2023-12-29T03:44:31.061Z,1.30
2023-12-29T03:46:57.830Z,1.80
2023-12-29T03:49:24.889Z,1.60
2023-12-29T03:51:51.743Z,1.53
2023-12-29T03:54:19.436Z,1.50
2023-12-29T03:56:46.159Z,1.80
2023-12-29T03:59:12.955Z,1.30
2023-12-29T04:01:39.673Z,1.40
2023-12-29T04:04:06.508Z,1.30
2023-12-29T04:06:33.338Z,1.67
2023-12-29T04:09:00.199Z,1.23
2023-12-29T04:11:26.904Z,1.30
2023-12-29T04:13:54.220Z,1.60
2023-12-29T04:16:21.064Z,1.23
2023-12-29T04:18:48.037Z,1.50
2023-12-29T04:21:15.923Z,1.40
2023-12-29T04:23:45.577Z,1.50
2023-12-29T04:26:12.467Z,1.40
2023-12-29T04:28:39.261Z,1.27
2023-12-29T04:31:06.118Z,1.60
2023-12-29T04:33:33.082Z,1.67
2023-12-29T04:36:00.359Z,1.30
2023-12-29T04:38:27.292Z,1.60
2023-12-29T04:40:54.007Z,1.57
2023-12-29T04:43:20.750Z,1.73
2023-12-29T04:45:47.504Z,2.03
2023-12-29T04:48:14.464Z,2.10
2023-12-29T04:50:41.192Z,2.87
2023-12-29T04:53:07.957Z,2.70
2023-12-29T04:55:34.797Z,3.03
2023-12-29T04:58:01.873Z,3.13
2023-12-29T05:00:28.799Z,2.50
2023-12-29T05:02:55.546Z,2.50
2023-12-29T05:05:22.300Z,1.87
2023-12-29T05:07:49.063Z,1.50
2023-12-29T05:10:16.039Z,1.57
2023-12-29T05:12:43.047Z,1.50
2023-12-29T05:15:10.006Z,1.43
2023-12-29T05:17:36.757Z,1.83
2023-12-29T05:20:03.773Z,1.67
2023-12-29T05:22:30.479Z,1.30
2023-12-29T05:25:01.020Z,1.40
2023-12-29T05:27:28.393Z,1.70
2023-12-29T05:29:55.205Z,1.40
2023-12-29T05:32:22.187Z,1.30
2023-12-29T05:34:49.036Z,1.20
2023-12-29T05:37:15.892Z,1.30
2023-12-29T05:39:44.079Z,1.87
2023-12-29T05:42:10.898Z,1.50
2023-12-29T05:44:38.683Z,1.40
2023-12-29T05:47:08.486Z,1.43
2023-12-29T05:49:39.962Z,1.30
2023-12-29T05:52:07.703Z,1.60
2023-12-29T05:54:35.154Z,1.60
2023-12-29T05:57:02.268Z,1.50
2023-12-29T05:59:29.104Z,1.40
2023-12-29T06:01:55.987Z,1.23
2023-12-29T06:04:23.075Z,1.60
2023-12-29T06:06:50.259Z,1.93
2023-12-29T06:09:17.010Z,1.90
2023-12-29T06:11:43.903Z,2.33
2023-12-29T06:14:11.420Z,2.90
2023-12-29T06:16:38.188Z,1.80
2023-12-29T06:19:05.188Z,2.40
2023-12-29T06:21:32.123Z,1.87
2023-12-29T06:23:58.872Z,1.47
2023-12-29T06:26:25.836Z,2.20
2023-12-29T06:28:52.780Z,1.80
2023-12-29T06:31:20.101Z,1.50
2023-12-29T06:33:47.144Z,1.77
2023-12-29T06:36:15.006Z,1.70
2023-12-29T06:38:41.798Z,1.80
2023-12-29T06:41:08.678Z,1.40
2023-12-29T06:43:36.042Z,1.23
2023-12-29T06:46:02.885Z,1.40
2023-12-29T06:48:29.798Z,1.37
2023-12-29T06:50:56.646Z,1.10
2023-12-29T06:53:23.404Z,1.50
2023-12-29T06:55:50.170Z,1.00
2023-12-29T06:58:17.730Z,1.47
2023-12-29T07:00:45.249Z,1.43
2023-12-29T07:03:16.341Z,1.13
2023-12-29T07:05:43.479Z,1.30
2023-12-29T07:08:13.938Z,1.20
2023-12-29T07:10:40.633Z,1.23
2023-12-29T07:13:07.383Z,1.50
2023-12-29T07:15:34.271Z,1.47
2023-12-29T07:18:01.438Z,1.23
2023-12-29T07:20:28.671Z,1.27
2023-12-29T07:22:55.629Z,1.40
2023-12-29T07:25:22.500Z,1.67
2023-12-29T07:27:49.817Z,1.33
2023-12-29T07:30:17.095Z,1.43
2023-12-29T07:32:43.932Z,1.50
2023-12-29T07:35:11.357Z,1.43
2023-12-29T07:37:38.344Z,1.70
2023-12-29T07:40:05.840Z,1.30
2023-12-29T07:42:33.844Z,1.40
2023-12-29T07:45:00.745Z,1.80
2023-12-29T07:47:27.606Z,1.40
2023-12-29T07:49:54.433Z,1.30
2023-12-29T07:52:21.214Z,1.30
2023-12-29T07:54:48.039Z,1.23
2023-12-29T07:57:14.774Z,1.37
2023-12-29T07:59:41.777Z,1.53
2023-12-29T08:02:08.559Z,1.30
2023-12-29T08:04:35.524Z,1.33
2023-12-29T08:07:02.467Z,1.00
2023-12-29T08:09:29.226Z,1.60
2023-12-29T08:11:55.956Z,1.60
2023-12-29T08:14:23.402Z,1.30
2023-12-29T08:16:50.169Z,1.13
2023-12-29T08:19:17.476Z,1.60
2023-12-29T08:21:44.403Z,1.37
2023-12-29T08:24:11.538Z,1.50
2023-12-29T08:26:46.112Z,1.10
2023-12-29T08:29:13.302Z,1.10
2023-12-29T08:31:40.328Z,1.30
2023-12-29T08:34:07.189Z,1.40
2023-12-29T08:36:34.619Z,1.20
2023-12-29T08:39:01.528Z,1.40
2023-12-29T08:41:28.432Z,1.70
2023-12-29T08:43:55.208Z,1.50
2023-12-29T08:46:22.281Z,1.40
2023-12-29T08:48:49.137Z,1.13
2023-12-29T08:51:16.022Z,1.33
2023-12-29T08:53:42.985Z,1.60
2023-12-29T08:56:09.750Z,1.63
2023-12-29T08:58:36.552Z,1.40
2023-12-29T09:01:03.675Z,1.30
2023-12-29T09:03:30.933Z,0.90
2023-12-29T09:05:58.472Z,1.50
2023-12-29T09:08:25.239Z,1.17
2023-12-29T09:10:51.996Z,1.90
2023-12-29T09:13:19.737Z,1.40
2023-12-29T09:15:46.599Z,1.80
2023-12-29T09:18:13.426Z,2.03
2023-12-29T09:20:40.849Z,1.90
2023-12-29T09:23:07.757Z,1.70
2023-12-29T09:25:34.535Z,1.73
2023-12-29T09:28:01.737Z,2.00
2023-12-29T09:30:28.826Z,1.40
2023-12-29T09:32:55.667Z,1.73
2023-12-29T09:35:22.658Z,1.60
2023-12-29T09:37:49.965Z,1.60
2023-12-29T09:40:17.033Z,1.43
2023-12-29T09:42:49.437Z,1.63
2023-12-29T09:45:24.028Z,1.43
2023-12-29T09:47:53.352Z,1.40
2023-12-29T09:50:20.689Z,1.30
2023-12-29T09:52:50.852Z,1.43
2023-12-29T09:55:18.717Z,1.40
2023-12-29T09:57:47.621Z,1.43
2023-12-29T10:00:17.512Z,1.20
2023-12-29T10:02:45.236Z,1.40
2023-12-29T10:05:12.345Z,1.37
2023-12-29T10:07:40.335Z,1.43
2023-12-29T10:10:08.204Z,1.50
2023-12-29T10:12:38.065Z,1.27
2023-12-29T10:15:12.560Z,1.50
2023-12-29T10:18:07.139Z,1.70
2023-12-29T10:20:39.759Z,1.80
2023-12-29T10:23:17.941Z,1.80
2023-12-29T10:25:44.795Z,1.50
2023-12-29T10:28:12.993Z,1.67
2023-12-29T10:30:40.014Z,1.47
2023-12-29T10:33:07.718Z,1.30
2023-12-29T10:35:38.597Z,1.20
2023-12-29T10:38:12.405Z,1.23
2023-12-29T10:40:39.903Z,1.63
2023-12-29T10:43:08.889Z,1.27
2023-12-29T10:45:37.643Z,1.17
2023-12-29T10:48:05.276Z,1.27
2023-12-29T10:50:43.510Z,1.50
2023-12-29T10:53:14.669Z,1.40
2023-12-29T10:55:41.492Z,1.20
2023-12-29T10:58:08.258Z,1.10
2023-12-29T11:00:35.144Z,1.07
2023-12-29T11:03:02.428Z,1.40
2023-12-29T11:05:29.460Z,1.20
2023-12-29T11:07:56.939Z,0.83
2023-12-29T11:10:23.964Z,1.03
2023-12-29T11:12:51.016Z,0.93
2023-12-29T11:15:18.476Z,1.07
2023-12-29T11:17:50.984Z,0.80
2023-12-29T11:20:18.566Z,0.80
2023-12-29T11:22:47.597Z,0.80
2023-12-29T11:25:16.877Z,0.70
2023-12-29T11:27:44.113Z,1.10
2023-12-29T11:30:15.136Z,0.80
2023-12-29T11:33:12.715Z,0.90
2023-12-29T11:35:56.185Z,0.80
2023-12-29T11:38:34.616Z,1.00
2023-12-29T11:41:20.241Z,0.60
2023-12-29T11:43:58.454Z,0.73
2023-12-29T11:46:38.603Z,0.80
2023-12-29T11:49:06.294Z,0.63
2023-12-29T11:51:44.743Z,0.80
2023-12-29T11:54:22.041Z,0.80
2023-12-29T11:56:48.930Z,1.10
2023-12-29T11:59:20.248Z,0.80
2023-12-29T12:01:54.059Z,1.00
2023-12-29T12:04:48.032Z,1.03
2023-12-29T12:07:38.715Z,0.83
2023-12-29T12:10:25.994Z,0.93
2023-12-29T12:12:53.783Z,0.97
2023-12-29T12:15:30.390Z,0.83
2023-12-29T12:17:58.196Z,0.90
2023-12-29T12:20:26.335Z,0.90
2023-12-29T12:23:11.515Z,1.27
2023-12-29T12:25:41.082Z,1.00
2023-12-29T12:28:08.835Z,0.80
2023-12-29T12:30:36.360Z,1.30
2023-12-29T12:33:05.472Z,1.03
2023-12-29T12:35:32.922Z,0.90
2023-12-29T12:38:13.286Z,1.10
2023-12-29T12:40:40.530Z,1.00
2023-12-29T12:43:08.704Z,0.83
2023-12-29T12:45:49.447Z,1.13
2023-12-29T12:48:29.619Z,1.20
2023-12-29T12:50:58.151Z,1.10
2023-12-29T12:53:25.193Z,1.20
2023-12-29T12:55:53.268Z,1.00
2023-12-29T12:58:24.053Z,1.17
2023-12-29T13:00:53.349Z,1.00
2023-12-29T13:03:22.899Z,0.90
2023-12-29T13:05:50.350Z,1.07
2023-12-29T13:08:26.523Z,1.00
2023-12-29T13:11:01.895Z,0.90
2023-12-29T13:13:43.845Z,1.10
2023-12-29T13:16:11.426Z,0.80
2023-12-29T13:18:38.370Z,1.30
2023-12-29T13:21:05.526Z,1.20
2023-12-29T13:23:33.042Z,1.23
2023-12-29T13:26:08.812Z,0.90
2023-12-29T13:28:39.403Z,0.80
2023-12-29T13:31:10.651Z,0.93
2023-12-29T13:33:50.749Z,0.90
2023-12-29T13:36:27.194Z,0.83
2023-12-29T13:39:06.611Z,1.00
2023-12-29T13:41:34.845Z,1.03
2023-12-29T13:44:02.422Z,0.90
2023-12-29T13:46:29.614Z,1.17
2023-12-29T13:48:57.702Z,0.93
2023-12-29T13:51:28.291Z,1.00
2023-12-29T13:54:02.260Z,0.70
2023-12-29T13:56:29.451Z,0.77
2023-12-29T13:58:56.292Z,0.83
2023-12-29T14:01:23.669Z,0.80
2023-12-29T14:04:00.000Z,0.80
2023-12-29T14:06:41.950Z,0.80
2023-12-29T14:09:16.013Z,0.90
2023-12-29T14:11:47.484Z,0.90
2023-12-29T14:14:14.359Z,0.80
2023-12-29T14:16:41.867Z,0.70
2023-12-29T14:19:09.596Z,0.87
2023-12-29T14:21:38.969Z,1.07
2023-12-29T14:24:11.910Z,0.93
2023-12-29T14:26:58.486Z,0.80
2023-12-29T14:29:25.569Z,0.90
2023-12-29T14:31:53.239Z,0.77
2023-12-29T14:34:20.844Z,0.70
2023-12-29T14:36:48.004Z,0.70
2023-12-29T14:39:16.588Z,0.93
2023-12-29T14:41:43.726Z,0.80
2023-12-29T14:44:10.930Z,1.23
2023-12-29T14:46:39.100Z,1.03
2023-12-29T14:49:06.407Z,1.10
2023-12-29T14:51:33.304Z,1.17
2023-12-29T14:54:00.455Z,1.10
2023-12-29T14:56:27.269Z,1.10
2023-12-29T14:58:54.052Z,0.80
2023-12-29T15:01:20.989Z,1.03
2023-12-29T15:03:48.555Z,0.90
2023-12-29T15:06:15.472Z,0.90
2023-12-29T15:08:42.360Z,1.07
2023-12-29T15:11:09.488Z,1.20
2023-12-29T15:13:36.570Z,1.20
2023-12-29T15:16:05.271Z,1.00
2023-12-29T15:18:32.863Z,1.00
2023-12-29T15:21:00.075Z,0.90
2023-12-29T15:23:29.090Z,1.17
2023-12-29T15:25:56.302Z,0.80
2023-12-29T15:28:23.406Z,1.10
2023-12-29T15:30:51.300Z,1.40
2023-12-29T15:33:18.513Z,4.37
2023-12-29T15:35:45.424Z,1.17
2023-12-29T15:38:12.192Z,1.60
2023-12-29T15:40:38.991Z,1.27
2023-12-29T15:43:06.060Z,4.03
2023-12-29T15:45:32.870Z,3.20
2023-12-29T15:48:01.442Z,4.87
2023-12-29T15:50:28.467Z,14.30
2023-12-29T15:52:55.296Z,8.17
2023-12-29T15:55:22.190Z,4.40
2023-12-29T15:57:49.128Z,2.30
2023-12-29T16:00:16.633Z,2.77
2023-12-29T16:02:43.996Z,1.13
2023-12-29T16:05:10.972Z,1.53
2023-12-29T16:07:37.677Z,1.57
2023-12-29T16:10:05.092Z,1.10
2023-12-29T16:12:31.983Z,1.13
2023-12-29T16:14:58.711Z,1.57
2023-12-29T16:17:25.551Z,1.60
2023-12-29T16:19:52.434Z,2.57
2023-12-29T16:22:19.270Z,2.30
2023-12-29T16:24:46.136Z,1.30
2023-12-29T16:27:13.046Z,1.80
2023-12-29T16:29:43.339Z,2.37
2023-12-29T16:32:10.126Z,2.50
2023-12-29T16:34:37.077Z,2.17
2023-12-29T16:37:04.031Z,1.70
2023-12-29T16:39:30.925Z,1.50
2023-12-29T16:41:57.724Z,1.50
2023-12-29T16:44:24.468Z,1.67
2023-12-29T16:46:51.273Z,1.60
2023-12-29T16:49:18.265Z,1.50
2023-12-29T16:51:45.590Z,1.67
2023-12-29T16:54:12.583Z,1.20
2023-12-29T16:56:39.364Z,1.30
2023-12-29T16:59:06.977Z,1.80
2023-12-29T17:01:34.482Z,1.83
2023-12-29T17:04:01.712Z,1.83
2023-12-29T17:06:28.740Z,1.50
2023-12-29T17:08:55.701Z,1.80
2023-12-29T17:11:22.605Z,1.57
2023-12-29T17:13:49.600Z,1.07
2023-12-29T17:16:17.006Z,1.40
2023-12-29T17:18:44.902Z,1.40
2023-12-29T17:21:12.546Z,1.10
2023-12-29T17:23:39.497Z,1.50
2023-12-29T17:26:11.286Z,1.30
2023-12-29T17:28:38.094Z,1.73
2023-12-29T17:31:07.042Z,1.40
2023-12-29T17:33:34.681Z,1.30
2023-12-29T17:36:01.573Z,1.70
2023-12-29T17:38:31.690Z,1.70
2023-12-29T17:40:58.370Z,1.40
2023-12-29T17:43:25.122Z,1.70
2023-12-29T17:45:51.930Z,1.50
2023-12-29T17:48:18.970Z,1.60
2023-12-29T17:50:45.733Z,1.73
2023-12-29T17:53:12.985Z,1.57
2023-12-29T17:55:39.731Z,1.60
2023-12-29T17:58:06.541Z,1.60
2023-12-29T18:00:33.434Z,1.50
2023-12-29T18:03:00.335Z,1.63
2023-12-29T18:05:27.426Z,2.23
2023-12-29T18:07:54.459Z,2.00
2023-12-29T18:10:21.344Z,1.77
2023-12-29T18:12:48.227Z,2.23
2023-12-29T18:15:16.651Z,2.00
2023-12-29T18:17:43.791Z,2.23
2023-12-29T18:20:15.434Z,2.17
2023-12-29T18:22:42.371Z,2.43
2023-12-29T18:25:09.370Z,2.33
2023-12-29T18:27:38.393Z,2.57
2023-12-29T18:30:06.082Z,3.43
2023-12-29T18:32:32.938Z,2.33
2023-12-29T18:35:00.398Z,2.40
2023-12-29T18:37:27.358Z,2.30
2023-12-29T18:39:54.193Z,2.37
2023-12-29T18:42:21.181Z,2.80
2023-12-29T18:44:48.044Z,2.63
2023-12-29T18:47:15.361Z,2.30
2023-12-29T18:49:42.357Z,3.00
2023-12-29T18:52:09.284Z,2.57
2023-12-29T18:54:36.464Z,2.57
2023-12-29T18:57:03.717Z,2.27
2023-12-29T18:59:30.984Z,2.40
2023-12-29T19:01:59.423Z,2.90
2023-12-29T19:04:27.764Z,2.60
2023-12-29T19:06:55.037Z,3.23
2023-12-29T19:09:21.856Z,3.37
2023-12-29T19:11:48.641Z,3.03
2023-12-29T19:14:16.185Z,3.50
2023-12-29T19:16:43.301Z,2.57
2023-12-29T19:19:10.508Z,2.20
2023-12-29T19:21:44.237Z,2.27
2023-12-29T19:24:11.459Z,2.07
2023-12-29T19:26:38.424Z,1.90
2023-12-29T19:29:05.454Z,1.67
2023-12-29T19:31:32.432Z,1.60
2023-12-29T19:33:59.627Z,6.00
2023-12-29T19:36:26.446Z,2.63
2023-12-29T19:38:53.481Z,1.73
2023-12-29T19:41:24.986Z,1.80
2023-12-29T19:43:52.655Z,1.30
2023-12-29T19:46:21.443Z,1.30
2023-12-29T19:48:51.581Z,1.20
2023-12-29T19:51:20.773Z,1.33
2023-12-29T19:53:48.537Z,1.63
2023-12-29T19:56:29.153Z,1.20
2023-12-29T19:58:56.873Z,1.20
2023-12-29T20:01:25.115Z,1.30
2023-12-29T20:03:52.091Z,1.40
2023-12-29T20:06:22.471Z,1.03
2023-12-29T20:08:50.439Z,1.00
2023-12-29T20:11:17.409Z,1.07
2023-12-29T20:13:44.401Z,0.90
2023-12-29T20:16:24.344Z,1.17
2023-12-29T20:18:53.707Z,0.90
2023-12-29T20:21:22.118Z,1.20
2023-12-29T20:23:49.499Z,1.60
2023-12-29T20:26:27.171Z,0.80
2023-12-29T20:28:55.149Z,0.80
2023-12-29T20:31:26.735Z,1.00
2023-12-29T20:33:54.133Z,1.17
2023-12-29T20:36:21.682Z,0.93
2023-12-29T20:38:51.669Z,0.77
2023-12-29T20:41:19.355Z,0.83
2023-12-29T20:43:49.188Z,0.87
2023-12-29T20:46:16.620Z,1.40
2023-12-29T20:48:43.823Z,0.90
2023-12-29T20:51:17.150Z,1.00
2023-12-29T20:53:44.227Z,0.90
2023-12-29T20:56:11.620Z,1.10
2023-12-29T20:58:38.868Z,0.93
2023-12-29T21:01:07.930Z,0.80
2023-12-29T21:03:36.497Z,0.77
2023-12-29T21:06:04.293Z,0.90
2023-12-29T21:08:33.987Z,0.60
2023-12-29T21:11:01.196Z,0.87
2023-12-29T21:13:30.270Z,0.80
2023-12-29T21:15:57.204Z,1.00
2023-12-29T21:18:24.624Z,0.80
2023-12-29T21:20:52.758Z,0.93
2023-12-29T21:23:22.256Z,1.07
2023-12-29T21:25:49.030Z,1.00
2023-12-29T21:28:15.891Z,0.90
2023-12-29T21:30:42.814Z,1.00
2023-12-29T21:33:09.848Z,0.90
2023-12-29T21:35:37.149Z,0.80
2023-12-29T21:38:04.303Z,1.03
2023-12-29T21:40:31.566Z,0.80
2023-12-29T21:42:58.606Z,0.90
2023-12-29T21:45:26.011Z,0.90
2023-12-29T21:47:52.900Z,1.00
2023-12-29T21:50:19.870Z,0.80
2023-12-29T21:52:48.434Z,0.83
2023-12-29T21:55:15.475Z,0.77
2023-12-29T21:57:42.524Z,0.80
2023-12-29T22:00:09.780Z,0.90
2023-12-29T22:02:36.536Z,0.90
2023-12-29T22:05:04.959Z,1.10
2023-12-29T22:07:31.906Z,0.70
2023-12-29T22:09:58.710Z,0.80
2023-12-29T22:12:25.621Z,0.70
2023-12-29T22:14:52.345Z,1.00
2023-12-29T22:17:19.122Z,0.77
2023-12-29T22:19:46.062Z,0.80
2023-12-29T22:22:13.395Z,0.80
2023-12-29T22:24:40.170Z,0.83
2023-12-29T22:27:07.111Z,0.80
2023-12-29T22:29:34.283Z,0.80
2023-12-29T22:32:01.351Z,0.90
2023-12-29T22:34:28.359Z,0.70
2023-12-29T22:36:55.314Z,0.60
2023-12-29T22:39:22.090Z,0.70
2023-12-29T22:41:48.889Z,0.70
2023-12-29T22:44:15.577Z,0.90
2023-12-29T22:46:42.753Z,0.63
2023-12-29T22:49:09.631Z,0.77
2023-12-29T22:51:36.410Z,0.90
2023-12-29T22:54:03.802Z,0.73
2023-12-29T22:56:30.697Z,0.80
2023-12-29T22:58:58.169Z,0.80
2023-12-29T23:01:25.130Z,0.83
2023-12-29T23:03:52.162Z,0.80
2023-12-29T23:06:19.064Z,0.60
2023-12-29T23:08:45.929Z,0.73
2023-12-29T23:11:12.780Z,0.60
2023-12-29T23:13:40.897Z,0.70
2023-12-29T23:16:08.019Z,0.63
2023-12-29T23:18:35.113Z,0.70
2023-12-29T23:21:02.304Z,0.70
2023-12-29T23:23:29.073Z,0.70
2023-12-29T23:25:56.059Z,0.90
2023-12-29T23:28:22.798Z,0.63
2023-12-29T23:30:49.712Z,0.80
2023-12-29T23:33:17.230Z,0.80
2023-12-29T23:35:44.258Z,0.93
2023-12-29T23:38:14.321Z,0.70
2023-12-29T23:40:41.157Z,0.73
2023-12-29T23:43:07.951Z,1.07
2023-12-29T23:45:36.122Z,1.00
2023-12-29T23:48:03.200Z,1.07
2023-12-29T23:50:30.047Z,0.87
2023-12-29T23:53:00.852Z,0.80
2023-12-29T23:55:28.444Z,0.70
2023-12-29T23:57:58.447Z,0.90
